Map

Track Data

SID SEASON NUMBER BASIN SUBBASIN NAME ISO_TIME NATURE LAT LON WMO_WIND WMO_PRES WMO_AGENCY TRACK_TYPE DIST2LAND LANDFALL IFLAG USA_AGENCY USA_ATCF_ID USA_LAT USA_LON USA_RECORD USA_STATUS USA_WIND USA_PRES USA_SSHS USA_R34_NE USA_R34_SE USA_R34_SW USA_R34_NW USA_R50_NE USA_R50_SE USA_R50_SW USA_R50_NW USA_R64_NE USA_R64_SE USA_R64_SW USA_R64_NW USA_POCI USA_ROCI USA_RMW USA_EYE TOKYO_LAT TOKYO_LON TOKYO_GRADE TOKYO_WIND TOKYO_PRES TOKYO_R50_DIR TOKYO_R50_LONG TOKYO_R50_SHORT TOKYO_R30_DIR TOKYO_R30_LONG TOKYO_R30_SHORT TOKYO_LAND CMA_LAT CMA_LON CMA_CAT CMA_WIND CMA_PRES HKO_LAT HKO_LON HKO_CAT HKO_WIND HKO_PRES NEWDELHI_LAT NEWDELHI_LON NEWDELHI_GRADE NEWDELHI_WIND NEWDELHI_PRES NEWDELHI_CI NEWDELHI_DP NEWDELHI_POCI REUNION_LAT REUNION_LON REUNION_TYPE REUNION_WIND REUNION_PRES REUNION_TNUM REUNION_CI REUNION_RMW REUNION_R34_NE REUNION_R34_SE REUNION_R34_SW REUNION_R34_NW REUNION_R50_NE REUNION_R50_SE REUNION_R50_SW REUNION_R50_NW REUNION_R64_NE REUNION_R64_SE REUNION_R64_SW REUNION_R64_NW BOM_LAT BOM_LON BOM_TYPE BOM_WIND BOM_PRES BOM_TNUM BOM_CI BOM_RMW BOM_R34_NE BOM_R34_SE BOM_R34_SW BOM_R34_NW BOM_R50_NE BOM_R50_SE BOM_R50_SW BOM_R50_NW BOM_R64_NE BOM_R64_SE BOM_R64_SW BOM_R64_NW BOM_ROCI BOM_POCI BOM_EYE BOM_POS_METHOD BOM_PRES_METHOD NADI_LAT NADI_LON NADI_CAT NADI_WIND NADI_PRES WELLINGTON_LAT WELLINGTON_LON WELLINGTON_WIND WELLINGTON_PRES DS824_LAT DS824_LON DS824_STAGE DS824_WIND DS824_PRES TD9636_LAT TD9636_LON TD9636_STAGE TD9636_WIND TD9636_PRES TD9635_LAT TD9635_LON TD9635_WIND TD9635_PRES TD9635_ROCI NEUMANN_LAT NEUMANN_LON NEUMANN_CLASS NEUMANN_WIND NEUMANN_PRES MLC_LAT MLC_LON MLC_CLASS MLC_WIND MLC_PRES USA_GUST BOM_GUST BOM_GUST_PER REUNION_GUST REUNION_GUST_PER USA_SEAHGT USA_SEARAD_NE USA_SEARAD_SE USA_SEARAD_SW USA_SEARAD_NW STORM_SPEED STORM_DIR
1949094S11059 1949 24 SI MM NOT_NAMED 1949-04-04 06:00:00 TS -11.2000 59.0000 main 1005 1005 O________OO___ jtwc_sh SH231949 -11.2000 59.0000 -1 -11.2000 59.0000 TC 25 -11.2000 59.0000 1 1 229
1949094S11059 1949 24 SI MM NOT_NAMED 1949-04-04 09:00:00 TS -11.2451 58.9500 main 1005 993 P________PP___ SH231949 -11.2325 58.9500 -1 -11.2325 58.9500 TC 25 -11.2703 58.9500 1 2 220
1949094S11059 1949 24 SI MM NOT_NAMED 1949-04-04 12:00:00 TS -11.3175 58.9000 main 993 982 O________OP___ jtwc_sh SH231949 -11.3000 58.9000 -1 -11.3000 58.9000 TC 25 -11.3525 58.9000 1 2 207
1949094S11059 1949 24 SI MM NOT_NAMED 1949-04-04 15:00:00 TS -11.4378 58.8500 main 982 958 P________PP___ SH231949 -11.4275 58.8500 -1 -11.4275 58.8500 TC 25 -11.4585 58.8500 1 3 199
1949094S11059 1949 24 SI MM NOT_NAMED 1949-04-04 18:00:00 TS -11.6000 58.8000 main 958 936 O________OO___ jtwc_sh SH231949 -11.6000 58.8000 -1 -11.6000 58.8000 TC 25 -11.6000 58.8000 1 4 195
1949094S11059 1949 24 SI MM NOT_NAMED 1949-04-04 21:00:00 TS -11.7895 58.7545 main 936 912 P________PP___ SH231949 -11.7925 58.7575 -1 -11.7925 58.7575 TC 25 -11.7834 58.7484 1 4 195
1949094S11059 1949 24 SI MM NOT_NAMED 1949-04-05 00:00:00 TS -11.9975 58.6958 main 912 889 O________OP___ jtwc_sh SH231949 -12.0000 58.7000 -1 -12.0000 58.7000 TC 25 -11.9924 58.6875 1 4 198
1949094S11059 1949 24 SI MM NOT_NAMED 1949-04-05 03:00:00 TS -12.2067 58.6126 main 889 865 P________PP___ SH231949 -12.2075 58.6150 -1 -12.2075 58.6150 TC 25 -12.2053 58.6078 1 4 205
1949094S11059 1949 24 SI MM NOT_NAMED 1949-04-05 06:00:00 TS -12.4000 58.5000 main 865 842 O________OO___ jtwc_sh SH231949 -12.4000 58.5000 -1 -12.4000 58.5000 TC 25 -12.4000 58.5000 1 4 214
1949094S11059 1949 24 SI MM NOT_NAMED 1949-04-05 09:00:00 TS -12.5602 58.3666 main 842 829 P________PP___ SH231949 -12.5650 58.3650 -1 -12.5650 58.3650 TC 25 -12.5506 58.3699 1 4 225
1949094S11059 1949 24 SI MM NOT_NAMED 1949-04-05 12:00:00 TS -12.6933 58.2033 main 829 817 O________OP___ jtwc_sh SH231949 -12.7000 58.2000 -1 -12.7000 58.2000 TC 25 -12.6799 58.2099 1 4 235
1949094S11059 1949 24 SI MM NOT_NAMED 1949-04-05 15:00:00 TS -12.8031 58.0166 main 817 805 P________PP___ SH231949 -12.8075 58.0150 -1 -12.8075 58.0150 TC 25 -12.7943 58.0199 1 4 242
1949094S11059 1949 24 SI MM NOT_NAMED 1949-04-05 18:00:00 TS -12.9000 57.8000 main 805 794 O________OO___ jtwc_sh SH231949 -12.9000 57.8000 -1 -12.9000 57.8000 TC 25 -12.9000 57.8000 1 5 246
1949094S11059 1949 24 SI MM NOT_NAMED 1949-04-05 21:00:00 TS -13.0010 57.5612 main 794 770 P________PP___ SH231949 -13.0000 57.5650 -1 -13.0000 57.5650 TC 25 -13.0032 57.5537 1 5 248
1949094S11059 1949 24 SI MM NOT_NAMED 1949-04-06 00:00:00 TS -13.1000 57.2933 main 770 735 O________OP___ jtwc_sh SH231949 -13.1000 57.3000 -1 -13.1000 57.3000 TC 25 -13.1000 57.2799 1 6 250
1949094S11059 1949 24 SI MM NOT_NAMED 1949-04-06 03:00:00 TS -13.1990 56.9971 main 735 701 P________PP___ SH231949 -13.2000 57.0000 -1 -13.2000 57.0000 TC 25 -13.1969 56.9912 1 6 251
1949094S11059 1949 24 SI MM NOT_NAMED 1949-04-06 06:00:00 TS -13.3000 56.7000 main 701 677 O________OO___ jtwc_sh SH231949 -13.3000 56.7000 -1 -13.3000 56.7000 TC 25 -13.3000 56.7000 1 6 249
1949094S11059 1949 24 SI MM NOT_NAMED 1949-04-06 09:00:00 TS -13.4036 56.4403 main 667 643 P________PP___ SH231949 -13.3924 56.4499 -1 -13.3924 56.4499 TC 25 -13.4259 56.4210 1 6 247
1949094S11059 1949 24 SI MM NOT_NAMED 1949-04-06 12:00:00 TS -13.5191 56.1809 main 643 605 O________OP___ jtwc_sh SH231949 -13.5000 56.2000 -1 -13.5000 56.2000 TC 25 -13.5574 56.1426 1 6 244
1949094S11059 1949 24 SI MM NOT_NAMED 1949-04-06 15:00:00 TS -13.6618 55.8893 main 605 571 P________PP___ SH231949 -13.6500 55.9000 -1 -13.6500 55.9000 TC 25 -13.6853 55.8679 1 6 244
1949094S11059 1949 24 SI MM NOT_NAMED 1949-04-06 18:00:00 TS -13.8000 55.6000 main 571 547 O________OO___ jtwc_sh SH231949 -13.8000 55.6000 -1 -13.8000 55.6000 TC 25 -13.8000 55.6000 1 6 245
1949094S11059 1949 24 SI MM NOT_NAMED 1949-04-06 21:00:00 TS -13.9082 55.3421 main 536 513 P________PP___ SH231949 -13.9149 55.3425 -1 -13.9149 55.3425 TC 25 -13.8948 55.3412 1 5 249
1949094S11059 1949 24 SI MM NOT_NAMED 1949-04-07 00:00:00 TS -13.9909 55.0967 main 513 492 O________OP___ jtwc_sh SH231949 -14.0000 55.1000 -1 -14.0000 55.1000 TC 25 -13.9727 55.0900 1 5 253
1949094S11059 1949 24 SI MM NOT_NAMED 1949-04-07 03:00:00 TS -14.0514 54.8496 main 478 458 P________PP___ SH231949 -14.0576 54.8525 -1 -14.0576 54.8525 TC 25 -14.0392 54.8438 1 5 257
1949094S11059 1949 24 SI MM NOT_NAMED 1949-04-07 06:00:00 TS -14.1000 54.6000 main 458 O________OO___ jtwc_sh SH231949 -14.1000 54.6000 -1 -14.1000 54.6000 TC 25 -14.1000 54.6000 1 5 259

About IBTrACS Database

This database is a web-friendly format of International Best Track Archive for Climate Stewardship (IBTrACS), a global best track data archive curated by NOAA dating back to 1842.

Updated: 2021-10-08